sensor_id;sensor_type;location;lat;lon;timestamp;temperature;humidity
16273;DHT22;8244;50.044;9.006;2023-07-09T00:00:34;22.70;92.60
16273;DHT22;8244;50.044;9.006;2023-07-09T00:05:36;22.60;93.10
16273;DHT22;8244;50.044;9.006;2023-07-09T00:10:40;22.50;93.80
16273;DHT22;8244;50.044;9.006;2023-07-09T00:15:41;22.30;94.40
16273;DHT22;8244;50.044;9.006;2023-07-09T00:20:43;22.30;93.80
16273;DHT22;8244;50.044;9.006;2023-07-09T00:25:50;22.10;94.20
16273;DHT22;8244;50.044;9.006;2023-07-09T00:30:51;22.00;94.10
16273;DHT22;8244;50.044;9.006;2023-07-09T00:35:53;21.90;94.50
16273;DHT22;8244;50.044;9.006;2023-07-09T00:41:03;21.80;94.80
16273;DHT22;8244;50.044;9.006;2023-07-09T00:46:16;21.70;96.50
16273;DHT22;8244;50.044;9.006;2023-07-09T00:51:21;21.60;97.30
16273;DHT22;8244;50.044;9.006;2023-07-09T00:56:27;21.50;97.70
16273;DHT22;8244;50.044;9.006;2023-07-09T01:01:32;21.40;97.90
16273;DHT22;8244;50.044;9.006;2023-07-09T01:06:37;21.40;97.80
16273;DHT22;8244;50.044;9.006;2023-07-09T01:11:41;21.30;99.00
16273;DHT22;8244;50.044;9.006;2023-07-09T01:16:45;21.30;99.80
16273;DHT22;8244;50.044;9.006;2023-07-09T01:21:49;21.20;99.90
16273;DHT22;8244;50.044;9.006;2023-07-09T01:26:52;21.10;99.90
16273;DHT22;8244;50.044;9.006;2023-07-09T01:31:54;21.10;99.90
16273;DHT22;8244;50.044;9.006;2023-07-09T01:36:58;21.00;99.90
16273;DHT22;8244;50.044;9.006;2023-07-09T01:41:59;20.90;99.90
16273;DHT22;8244;50.044;9.006;2023-07-09T01:47:01;20.80;99.90
16273;DHT22;8244;50.044;9.006;2023-07-09T01:52:06;20.80;99.90
16273;DHT22;8244;50.044;9.006;2023-07-09T01:57:15;20.70;99.90
16273;DHT22;8244;50.044;9.006;2023-07-09T02:02:17;20.70;99.90
16273;DHT22;8244;50.044;9.006;2023-07-09T02:07:23;20.60;99.90
16273;DHT22;8244;50.044;9.006;2023-07-09T02:12:25;20.50;99.90
16273;DHT22;8244;50.044;9.006;2023-07-09T02:17:26;20.50;99.90
16273;DHT22;8244;50.044;9.006;2023-07-09T02:22:29;20.40;99.90
16273;DHT22;8244;50.044;9.006;2023-07-09T02:27:31;20.30;99.90
16273;DHT22;8244;50.044;9.006;2023-07-09T02:32:34;20.30;99.90
16273;DHT22;8244;50.044;9.006;2023-07-09T02:37:37;20.20;99.90
16273;DHT22;8244;50.044;9.006;2023-07-09T02:42:39;20.20;99.90
16273;DHT22;8244;50.044;9.006;2023-07-09T02:47:40;20.10;99.90
16273;DHT22;8244;50.044;9.006;2023-07-09T02:52:43;20.10;99.90
16273;DHT22;8244;50.044;9.006;2023-07-09T02:57:45;20.10;99.90
16273;DHT22;8244;50.044;9.006;2023-07-09T03:02:46;20.00;99.90
16273;DHT22;8244;50.044;9.006;2023-07-09T03:07:49;19.90;99.90
16273;DHT22;8244;50.044;9.006;2023-07-09T03:12:51;19.80;99.90
16273;DHT22;8244;50.044;9.006;2023-07-09T03:17:53;19.80;99.90
16273;DHT22;8244;50.044;9.006;2023-07-09T03:22:56;19.60;99.90
16273;DHT22;8244;50.044;9.006;2023-07-09T03:27:57;19.60;99.90
16273;DHT22;8244;50.044;9.006;2023-07-09T03:32:59;19.50;99.90
16273;DHT22;8244;50.044;9.006;2023-07-09T03:38:06;19.40;99.90
16273;DHT22;8244;50.044;9.006;2023-07-09T03:43:09;19.40;99.90
16273;DHT22;8244;50.044;9.006;2023-07-09T03:48:11;19.30;99.90
16273;DHT22;8244;50.044;9.006;2023-07-09T03:53:15;19.30;99.90
16273;DHT22;8244;50.044;9.006;2023-07-09T03:58:17;19.20;99.90
16273;DHT22;8244;50.044;9.006;2023-07-09T04:03:18;19.20;99.90
16273;DHT22;8244;50.044;9.006;2023-07-09T04:08:21;19.20;99.90
16273;DHT22;8244;50.044;9.006;2023-07-09T04:13:23;19.10;99.90
16273;DHT22;8244;50.044;9.006;2023-07-09T04:18:24;19.20;99.90
16273;DHT22;8244;50.044;9.006;2023-07-09T04:23:28;19.20;99.90
16273;DHT22;8244;50.044;9.006;2023-07-09T04:28:29;19.20;99.90
16273;DHT22;8244;50.044;9.006;2023-07-09T04:33:31;19.20;99.90
16273;DHT22;8244;50.044;9.006;2023-07-09T04:38:37;19.30;99.90
16273;DHT22;8244;50.044;9.006;2023-07-09T04:43:39;19.50;99.90
16273;DHT22;8244;50.044;9.006;2023-07-09T04:48:41;19.60;99.90
16273;DHT22;8244;50.044;9.006;2023-07-09T04:53:44;19.70;99.90
16273;DHT22;8244;50.044;9.006;2023-07-09T04:58:45;19.90;99.90
16273;DHT22;8244;50.044;9.006;2023-07-09T05:03:47;20.20;99.90
16273;DHT22;8244;50.044;9.006;2023-07-09T05:08:50;20.50;99.90
16273;DHT22;8244;50.044;9.006;2023-07-09T05:13:52;21.10;99.90
16273;DHT22;8244;50.044;9.006;2023-07-09T05:18:53;21.90;99.90
16273;DHT22;8244;50.044;9.006;2023-07-09T05:23:56;22.90;99.90
16273;DHT22;8244;50.044;9.006;2023-07-09T05:28:58;23.70;99.90
16273;DHT22;8244;50.044;9.006;2023-07-09T05:34:00;24.00;99.90
16273;DHT22;8244;50.044;9.006;2023-07-09T05:39:03;24.40;99.90
16273;DHT22;8244;50.044;9.006;2023-07-09T05:44:05;24.80;99.90
16273;DHT22;8244;50.044;9.006;2023-07-09T05:49:07;25.40;99.90
16273;DHT22;8244;50.044;9.006;2023-07-09T05:54:10;25.90;99.90
16273;DHT22;8244;50.044;9.006;2023-07-09T05:59:12;26.60;98.60
16273;DHT22;8244;50.044;9.006;2023-07-09T06:04:14;27.30;96.20
16273;DHT22;8244;50.044;9.006;2023-07-09T06:09:18;27.90;94.80
16273;DHT22;8244;50.044;9.006;2023-07-09T06:14:19;28.40;93.20
16273;DHT22;8244;50.044;9.006;2023-07-09T06:19:21;28.80;91.30
16273;DHT22;8244;50.044;9.006;2023-07-09T06:24:24;28.90;90.10
16273;DHT22;8244;50.044;9.006;2023-07-09T06:29:26;29.40;89.20
16273;DHT22;8244;50.044;9.006;2023-07-09T06:34:27;30.10;84.70
16273;DHT22;8244;50.044;9.006;2023-07-09T06:39:30;30.50;82.30
16273;DHT22;8244;50.044;9.006;2023-07-09T06:44:32;30.90;81.80
16273;DHT22;8244;50.044;9.006;2023-07-09T06:49:33;31.60;78.00
16273;DHT22;8244;50.044;9.006;2023-07-09T06:54:36;32.20;75.20
16273;DHT22;8244;50.044;9.006;2023-07-09T06:59:38;32.60;72.80
16273;DHT22;8244;50.044;9.006;2023-07-09T07:04:40;33.10;71.40
16273;DHT22;8244;50.044;9.006;2023-07-09T07:09:43;33.60;69.50
16273;DHT22;8244;50.044;9.006;2023-07-09T07:14:45;33.90;68.30
16273;DHT22;8244;50.044;9.006;2023-07-09T07:19:47;34.20;67.40
16273;DHT22;8244;50.044;9.006;2023-07-09T07:24:50;34.40;66.50
16273;DHT22;8244;50.044;9.006;2023-07-09T07:29:52;34.50;64.90
16273;DHT22;8244;50.044;9.006;2023-07-09T07:34:54;34.90;63.80
16273;DHT22;8244;50.044;9.006;2023-07-09T07:39:57;35.60;63.60
16273;DHT22;8244;50.044;9.006;2023-07-09T07:44:59;36.20;61.50
16273;DHT22;8244;50.044;9.006;2023-07-09T07:50:01;36.70;60.90
16273;DHT22;8244;50.044;9.006;2023-07-09T07:55:05;37.20;61.70
16273;DHT22;8244;50.044;9.006;2023-07-09T08:00:08;37.70;58.40
16273;DHT22;8244;50.044;9.006;2023-07-09T08:05:10;38.10;57.50
16273;DHT22;8244;50.044;9.006;2023-07-09T08:10:13;38.50;56.80
16273;DHT22;8244;50.044;9.006;2023-07-09T08:15:15;38.70;55.40
16273;DHT22;8244;50.044;9.006;2023-07-09T08:20:18;39.10;54.50
16273;DHT22;8244;50.044;9.006;2023-07-09T08:25:21;39.40;56.40
16273;DHT22;8244;50.044;9.006;2023-07-09T08:30:23;40.10;56.20
16273;DHT22;8244;50.044;9.006;2023-07-09T08:35:24;40.70;55.10
16273;DHT22;8244;50.044;9.006;2023-07-09T08:40:27;41.20;54.30
16273;DHT22;8244;50.044;9.006;2023-07-09T08:45:39;41.70;54.60
16273;DHT22;8244;50.044;9.006;2023-07-09T08:50:44;42.10;53.20
16273;DHT22;8244;50.044;9.006;2023-07-09T08:55:50;42.60;52.00
16273;DHT22;8244;50.044;9.006;2023-07-09T09:00:54;43.00;51.20
16273;DHT22;8244;50.044;9.006;2023-07-09T09:05:57;43.30;50.50
16273;DHT22;8244;50.044;9.006;2023-07-09T09:11:06;43.60;49.80
16273;DHT22;8244;50.044;9.006;2023-07-09T09:16:14;43.80;48.70
16273;DHT22;8244;50.044;9.006;2023-07-09T09:21:23;44.10;49.30
16273;DHT22;8244;50.044;9.006;2023-07-09T09:26:31;44.40;48.20
16273;DHT22;8244;50.044;9.006;2023-07-09T09:31:33;44.60;48.70
16273;DHT22;8244;50.044;9.006;2023-07-09T09:36:37;44.90;47.40
16273;DHT22;8244;50.044;9.006;2023-07-09T09:41:40;44.80;47.90
16273;DHT22;8244;50.044;9.006;2023-07-09T09:46:43;44.90;47.80
16273;DHT22;8244;50.044;9.006;2023-07-09T09:51:46;45.30;46.70
16273;DHT22;8244;50.044;9.006;2023-07-09T09:56:50;45.50;46.50
16273;DHT22;8244;50.044;9.006;2023-07-09T10:01:57;45.80;46.30
16273;DHT22;8244;50.044;9.006;2023-07-09T10:07:03;45.80;45.90
16273;DHT22;8244;50.044;9.006;2023-07-09T10:12:16;46.00;45.40
16273;DHT22;8244;50.044;9.006;2023-07-09T10:17:36;46.20;45.30
16273;DHT22;8244;50.044;9.006;2023-07-09T10:22:43;46.10;44.40
16273;DHT22;8244;50.044;9.006;2023-07-09T10:28:02;46.10;44.50
16273;DHT22;8244;50.044;9.006;2023-07-09T10:33:09;46.10;44.40
16273;DHT22;8244;50.044;9.006;2023-07-09T10:38:22;46.40;44.60
16273;DHT22;8244;50.044;9.006;2023-07-09T10:43:33;46.40;43.60
16273;DHT22;8244;50.044;9.006;2023-07-09T10:48:39;46.40;44.70
16273;DHT22;8244;50.044;9.006;2023-07-09T10:53:44;46.70;42.50
16273;DHT22;8244;50.044;9.006;2023-07-09T10:58:52;46.00;44.70
16273;DHT22;8244;50.044;9.006;2023-07-09T11:04:00;46.40;41.60
16273;DHT22;8244;50.044;9.006;2023-07-09T11:09:05;46.40;43.80
16273;DHT22;8244;50.044;9.006;2023-07-09T11:14:25;46.80;44.00
16273;DHT22;8244;50.044;9.006;2023-07-09T11:19:29;47.40;43.40
16273;DHT22;8244;50.044;9.006;2023-07-09T11:24:34;47.40;39.50
16273;DHT22;8244;50.044;9.006;2023-07-09T11:29:46;46.50;43.50
16273;DHT22;8244;50.044;9.006;2023-07-09T11:34:48;47.10;41.30
16273;DHT22;8244;50.044;9.006;2023-07-09T11:39:50;47.60;40.90
16273;DHT22;8244;50.044;9.006;2023-07-09T11:44:57;47.20;39.80
16273;DHT22;8244;50.044;9.006;2023-07-09T11:50:02;47.00;42.50
16273;DHT22;8244;50.044;9.006;2023-07-09T11:55:20;47.40;42.80
16273;DHT22;8244;50.044;9.006;2023-07-09T12:00:26;47.90;41.10
16273;DHT22;8244;50.044;9.006;2023-07-09T12:05:29;47.80;41.20
16273;DHT22;8244;50.044;9.006;2023-07-09T12:10:33;47.70;39.30
16273;DHT22;8244;50.044;9.006;2023-07-09T12:15:39;46.80;41.60
16273;DHT22;8244;50.044;9.006;2023-07-09T12:20:47;47.30;41.40
16273;DHT22;8244;50.044;9.006;2023-07-09T12:25:50;47.80;41.00
16273;DHT22;8244;50.044;9.006;2023-07-09T12:30:54;47.40;40.20
16273;DHT22;8244;50.044;9.006;2023-07-09T12:35:58;47.70;40.30
16273;DHT22;8244;50.044;9.006;2023-07-09T12:41:01;47.90;39.60
16273;DHT22;8244;50.044;9.006;2023-07-09T12:46:05;46.80;39.80
16273;DHT22;8244;50.044;9.006;2023-07-09T12:51:08;46.50;41.40
16273;DHT22;8244;50.044;9.006;2023-07-09T12:56:12;46.40;41.40
16273;DHT22;8244;50.044;9.006;2023-07-09T13:01:17;46.20;41.20
16273;DHT22;8244;50.044;9.006;2023-07-09T13:06:28;46.20;41.60
16273;DHT22;8244;50.044;9.006;2023-07-09T13:11:34;46.40;41.10
16273;DHT22;8244;50.044;9.006;2023-07-09T13:16:40;45.80;41.00
16273;DHT22;8244;50.044;9.006;2023-07-09T13:21:42;45.30;41.70
16273;DHT22;8244;50.044;9.006;2023-07-09T13:26:43;45.00;42.40
16273;DHT22;8244;50.044;9.006;2023-07-09T13:31:49;45.60;41.80
16273;DHT22;8244;50.044;9.006;2023-07-09T13:36:51;46.00;42.30
16273;DHT22;8244;50.044;9.006;2023-07-09T13:41:54;46.40;40.20
16273;DHT22;8244;50.044;9.006;2023-07-09T13:46:57;45.90;40.60
16273;DHT22;8244;50.044;9.006;2023-07-09T13:51:59;45.50;41.10
16273;DHT22;8244;50.044;9.006;2023-07-09T13:57:02;45.30;41.10
16273;DHT22;8244;50.044;9.006;2023-07-09T14:02:18;45.80;42.50
16273;DHT22;8244;50.044;9.006;2023-07-09T14:07:26;46.30;41.90
16273;DHT22;8244;50.044;9.006;2023-07-09T14:12:29;46.80;42.20
16273;DHT22;8244;50.044;9.006;2023-07-09T14:17:32;47.10;40.90
16273;DHT22;8244;50.044;9.006;2023-07-09T14:22:36;47.10;41.50
16273;DHT22;8244;50.044;9.006;2023-07-09T14:27:38;47.00;40.00
16273;DHT22;8244;50.044;9.006;2023-07-09T14:32:41;46.60;40.80
16273;DHT22;8244;50.044;9.006;2023-07-09T14:37:47;45.90;41.00
16273;DHT22;8244;50.044;9.006;2023-07-09T14:42:49;45.20;39.70
16273;DHT22;8244;50.044;9.006;2023-07-09T14:47:53;44.60;41.20
16273;DHT22;8244;50.044;9.006;2023-07-09T14:52:55;44.20;40.70
16273;DHT22;8244;50.044;9.006;2023-07-09T14:57:56;43.60;41.80
16273;DHT22;8244;50.044;9.006;2023-07-09T15:03:02;43.20;43.70
16273;DHT22;8244;50.044;9.006;2023-07-09T15:08:12;43.10;43.20
16273;DHT22;8244;50.044;9.006;2023-07-09T15:13:17;43.20;42.20
16273;DHT22;8244;50.044;9.006;2023-07-09T15:18:20;43.10;41.50
16273;DHT22;8244;50.044;9.006;2023-07-09T15:23:22;42.80;42.90
16273;DHT22;8244;50.044;9.006;2023-07-09T15:28:24;42.80;41.40
16273;DHT22;8244;50.044;9.006;2023-07-09T15:33:27;43.00;43.50
16273;DHT22;8244;50.044;9.006;2023-07-09T15:38:31;43.20;43.60
16273;DHT22;8244;50.044;9.006;2023-07-09T15:43:35;43.10;40.40
16273;DHT22;8244;50.044;9.006;2023-07-09T15:48:38;42.40;43.40
16273;DHT22;8244;50.044;9.006;2023-07-09T15:53:39;42.30;42.70
16273;DHT22;8244;50.044;9.006;2023-07-09T15:58:44;42.30;42.70
16273;DHT22;8244;50.044;9.006;2023-07-09T16:03:49;42.30;41.30
16273;DHT22;8244;50.044;9.006;2023-07-09T16:08:51;41.80;42.20
16273;DHT22;8244;50.044;9.006;2023-07-09T16:13:53;41.70;43.20
16273;DHT22;8244;50.044;9.006;2023-07-09T16:18:56;41.70;43.60
16273;DHT22;8244;50.044;9.006;2023-07-09T16:24:02;41.70;43.90
16273;DHT22;8244;50.044;9.006;2023-07-09T16:29:15;41.50;42.40
16273;DHT22;8244;50.044;9.006;2023-07-09T16:34:19;41.00;44.70
16273;DHT22;8244;50.044;9.006;2023-07-09T16:39:28;40.90;43.00
16273;DHT22;8244;50.044;9.006;2023-07-09T16:44:30;40.60;44.30
16273;DHT22;8244;50.044;9.006;2023-07-09T16:49:37;40.40;44.10
16273;DHT22;8244;50.044;9.006;2023-07-09T16:54:39;40.00;43.00
16273;DHT22;8244;50.044;9.006;2023-07-09T16:59:42;39.40;44.80
16273;DHT22;8244;50.044;9.006;2023-07-09T17:04:45;39.20;44.60
16273;DHT22;8244;50.044;9.006;2023-07-09T17:09:46;39.00;45.10
16273;DHT22;8244;50.044;9.006;2023-07-09T17:14:48;38.60;45.40
16273;DHT22;8244;50.044;9.006;2023-07-09T17:19:51;38.60;45.00
16273;DHT22;8244;50.044;9.006;2023-07-09T17:24:54;38.50;45.00
16273;DHT22;8244;50.044;9.006;2023-07-09T17:29:55;38.40;48.00
16273;DHT22;8244;50.044;9.006;2023-07-09T17:34:58;38.40;45.90
16273;DHT22;8244;50.044;9.006;2023-07-09T17:40:00;38.10;47.70
16273;DHT22;8244;50.044;9.006;2023-07-09T17:45:05;38.00;49.50
16273;DHT22;8244;50.044;9.006;2023-07-09T17:50:15;37.90;50.50
16273;DHT22;8244;50.044;9.006;2023-07-09T17:55:17;37.80;51.00
16273;DHT22;8244;50.044;9.006;2023-07-09T18:00:21;37.50;51.60
16273;DHT22;8244;50.044;9.006;2023-07-09T18:05:27;37.30;52.10
16273;DHT22;8244;50.044;9.006;2023-07-09T18:10:31;36.90;53.50
16273;DHT22;8244;50.044;9.006;2023-07-09T18:15:34;36.40;52.20
16273;DHT22;8244;50.044;9.006;2023-07-09T18:20:38;35.60;54.10
16273;DHT22;8244;50.044;9.006;2023-07-09T18:25:43;34.80;55.90
16273;DHT22;8244;50.044;9.006;2023-07-09T18:30:45;34.20;56.80
16273;DHT22;8244;50.044;9.006;2023-07-09T18:35:48;33.90;57.90
16273;DHT22;8244;50.044;9.006;2023-07-09T18:40:50;33.50;58.60
16273;DHT22;8244;50.044;9.006;2023-07-09T18:45:52;33.10;59.20
16273;DHT22;8244;50.044;9.006;2023-07-09T18:50:57;32.80;59.90
16273;DHT22;8244;50.044;9.006;2023-07-09T18:55:59;32.60;60.80
16273;DHT22;8244;50.044;9.006;2023-07-09T19:01:02;32.30;61.30
16273;DHT22;8244;50.044;9.006;2023-07-09T19:06:10;32.20;61.70
16273;DHT22;8244;50.044;9.006;2023-07-09T19:11:12;32.00;62.20
16273;DHT22;8244;50.044;9.006;2023-07-09T19:16:22;31.80;62.80
16273;DHT22;8244;50.044;9.006;2023-07-09T19:21:29;31.60;63.60
16273;DHT22;8244;50.044;9.006;2023-07-09T19:26:31;31.40;64.00
16273;DHT22;8244;50.044;9.006;2023-07-09T19:31:33;31.30;64.60
16273;DHT22;8244;50.044;9.006;2023-07-09T19:36:36;31.10;64.80
16273;DHT22;8244;50.044;9.006;2023-07-09T19:41:38;30.90;65.50
16273;DHT22;8244;50.044;9.006;2023-07-09T19:46:39;30.80;66.30
16273;DHT22;8244;50.044;9.006;2023-07-09T19:51:43;30.70;66.40
16273;DHT22;8244;50.044;9.006;2023-07-09T19:56:46;30.50;67.70
16273;DHT22;8244;50.044;9.006;2023-07-09T20:01:50;30.40;68.30
16273;DHT22;8244;50.044;9.006;2023-07-09T20:06:53;30.30;68.80
16273;DHT22;8244;50.044;9.006;2023-07-09T20:11:55;30.10;69.20
16273;DHT22;8244;50.044;9.006;2023-07-09T20:16:58;30.00;70.10
16273;DHT22;8244;50.044;9.006;2023-07-09T20:22:01;29.80;70.40
16273;DHT22;8244;50.044;9.006;2023-07-09T20:27:09;29.60;71.10
16273;DHT22;8244;50.044;9.006;2023-07-09T20:32:15;29.50;70.90
16273;DHT22;8244;50.044;9.006;2023-07-09T20:37:19;29.40;71.90
16273;DHT22;8244;50.044;9.006;2023-07-09T20:42:22;29.30;73.30
16273;DHT22;8244;50.044;9.006;2023-07-09T20:47:23;29.20;74.10
16273;DHT22;8244;50.044;9.006;2023-07-09T20:52:27;29.00;74.20
16273;DHT22;8244;50.044;9.006;2023-07-09T20:57:30;28.90;74.60
16273;DHT22;8244;50.044;9.006;2023-07-09T21:02:33;28.90;75.10
16273;DHT22;8244;50.044;9.006;2023-07-09T21:07:38;28.70;75.10
16273;DHT22;8244;50.044;9.006;2023-07-09T21:12:41;28.60;76.10
16273;DHT22;8244;50.044;9.006;2023-07-09T21:17:43;28.50;75.80
16273;DHT22;8244;50.044;9.006;2023-07-09T21:22:46;28.40;76.10
16273;DHT22;8244;50.044;9.006;2023-07-09T21:27:48;28.30;76.70
16273;DHT22;8244;50.044;9.006;2023-07-09T21:32:50;28.20;77.40
16273;DHT22;8244;50.044;9.006;2023-07-09T21:37:55;28.10;78.40
16273;DHT22;8244;50.044;9.006;2023-07-09T21:42:58;27.90;79.30
16273;DHT22;8244;50.044;9.006;2023-07-09T21:48:00;27.80;79.10
16273;DHT22;8244;50.044;9.006;2023-07-09T21:53:11;27.60;80.20
16273;DHT22;8244;50.044;9.006;2023-07-09T21:58:15;27.50;81.50
16273;DHT22;8244;50.044;9.006;2023-07-09T22:03:17;27.30;83.10
16273;DHT22;8244;50.044;9.006;2023-07-09T22:08:21;27.10;82.90
16273;DHT22;8244;50.044;9.006;2023-07-09T22:13:23;27.00;83.30
16273;DHT22;8244;50.044;9.006;2023-07-09T22:18:26;26.90;84.90
16273;DHT22;8244;50.044;9.006;2023-07-09T22:23:29;26.70;85.70
16273;DHT22;8244;50.044;9.006;2023-07-09T22:28:31;26.60;87.60
16273;DHT22;8244;50.044;9.006;2023-07-09T22:33:33;26.50;87.50
16273;DHT22;8244;50.044;9.006;2023-07-09T22:38:36;26.40;87.80
16273;DHT22;8244;50.044;9.006;2023-07-09T22:43:38;26.40;87.80
16273;DHT22;8244;50.044;9.006;2023-07-09T22:48:39;26.30;88.90
16273;DHT22;8244;50.044;9.006;2023-07-09T22:53:44;26.30;87.00
16273;DHT22;8244;50.044;9.006;2023-07-09T22:58:46;26.20;88.90
16273;DHT22;8244;50.044;9.006;2023-07-09T23:03:48;26.10;90.00
16273;DHT22;8244;50.044;9.006;2023-07-09T23:08:53;26.00;89.20
16273;DHT22;8244;50.044;9.006;2023-07-09T23:13:56;25.80;89.10
16273;DHT22;8244;50.044;9.006;2023-07-09T23:19:01;25.80;89.10
16273;DHT22;8244;50.044;9.006;2023-07-09T23:24:07;25.80;89.20
16273;DHT22;8244;50.044;9.006;2023-07-09T23:29:09;25.70;89.80
16273;DHT22;8244;50.044;9.006;2023-07-09T23:34:16;25.60;90.00
16273;DHT22;8244;50.044;9.006;2023-07-09T23:39:19;25.50;89.20
16273;DHT22;8244;50.044;9.006;2023-07-09T23:44:28;25.50;90.60
16273;DHT22;8244;50.044;9.006;2023-07-09T23:49:31;25.40;90.70
16273;DHT22;8244;50.044;9.006;2023-07-09T23:54:34;25.30;90.70
16273;DHT22;8244;50.044;9.006;2023-07-09T23:59:36;25.20;90.60
